Terminal Aerodrome Forecast
Issued by NWS Corpus Christi, TX

Home | Current Version | Previous Version | Text Only | Print | Product List | Glossary On
Versions: 1 2 3 4 5 6 7 8 9 10 11 12 13 14 15 16 17
000
FTUS44 KCRP 241457 AAB
TAFVCT
TAF AMD
KVCT 241457Z 2415/2512 18011KT P6SM SCT025
      TEMPO 2415/2416 BKN020
     FM241800 16014KT P6SM FEW050
     FM250200 15007KT P6SM SKC
     FM250800 VRB03KT 4SM BR SCT020=

USA.gov is the U.S. government's official web portal to all federal, state and local government web resources and services.